Terminal Aerodrome Forecast
Issued by NWS New Orleans/Baton Rouge, LA

Home | Current Version | Previous Version | Text Only | Print | Product List | Glossary On
Versions: 1 2 3 4 5 6 7 8 9 10 11 12 13
519
FTUS44 KLIX 281722
TAFBTR
TAF
KBTR 281722Z 2818/2918 17014G22KT P6SM BKN040
     FM290000 16013KT P6SM BKN030
     FM290400 14012KT P6SM BKN015
     FM291600 15019G27KT P6SM BKN025=

USA.gov is the U.S. government's official web portal to all federal, state and local government web resources and services.